Time;durP1;ratioP1;P1;durP2;ratioP2;P2;SDS_P1;SDS_P2;PMS_P1;PMS_P2;Temp;Humidity;BMP_temperature;BMP_pressure;BME280_temperature;BME280_humidity;BME280_pressure;Samples;Min_cycle;Max_cycle;Signal;HPM_P1;HPM_P2
2023/07/14 06:09:40;;;;;;;;;;;19.60;99.90;;;;;;5107012;27;19970;-69
2023/07/14 06:12:09;;;;;;;;;;;19.10;99.90;;;;;;5061339;28;19972;-69
2023/07/14 06:14:38;;;;;;;;;;;19.20;99.90;;;;;;5058776;28;19967;-68
2023/07/14 06:17:08;;;;;;;;;;;19.40;99.90;;;;;;5063379;28;20473;-76
2023/07/14 06:19:37;;;;;;;;;;;19.60;99.90;;;;;;5062020;28;19974;-70
2023/07/14 06:22:06;;;;;;;;;;;19.70;99.90;;;;;;5062840;28;19964;-71
2023/07/14 06:24:35;;;;;;;;;;;19.80;99.90;;;;;;5059296;28;20433;-70
2023/07/14 06:27:05;;;;;;;;;;;19.90;99.90;;;;;;5048551;28;19971;-70
2023/07/14 06:29:37;;;;;;;;;;;20.00;99.90;;;;;;5047206;28;19965;-68
2023/07/14 06:32:05;;;;;;;;;;;20.20;99.90;;;;;;5048396;28;19962;-68
2023/07/14 06:34:33;;;;;;;;;;;20.30;99.90;;;;;;5047804;28;20067;-68
2023/07/14 06:37:01;;;;;;;;;;;20.40;99.90;;;;;;5047778;28;19951;-69
2023/07/14 06:39:28;;;;;;;;;;;20.50;99.90;;;;;;5048128;28;20341;-69
2023/07/14 06:41:56;;;;;;;;;;;20.50;99.90;;;;;;5048211;28;19951;-69
2023/07/14 06:44:25;;;;;;;;;;;20.50;99.90;;;;;;5047995;28;20013;-69
2023/07/14 06:46:54;;;;;;;;;;;20.40;99.90;;;;;;5048451;28;19951;-69
2023/07/14 06:49:22;;;;;;;;;;;20.40;99.90;;;;;;5047729;28;19974;-69
2023/07/14 06:51:54;;;;;;;;;;;20.40;99.90;;;;;;5048149;28;19951;-69
2023/07/14 06:54:22;;;;;;;;;;;20.60;99.90;;;;;;5047708;28;19994;-68
2023/07/14 06:56:50;;;;;;;;;;;20.70;99.90;;;;;;5047977;28;19971;-68
2023/07/14 06:59:17;;;;;;;;;;;20.70;99.90;;;;;;5047567;28;19943;-68
2023/07/14 07:01:46;;;;;;;;;;;20.70;99.90;;;;;;5047938;28;19964;-68
2023/07/14 07:04:15;;;;;;;;;;;20.60;99.90;;;;;;5047432;28;19927;-69
2023/07/14 07:06:43;;;;;;;;;;;20.50;99.90;;;;;;5047874;28;19975;-68
2023/07/14 07:09:11;;;;;;;;;;;20.50;99.90;;;;;;5063733;28;19921;-69
2023/07/14 07:11:38;;;;;;;;;;;20.60;99.90;;;;;;5067543;28;19974;-69
2023/07/14 07:14:06;;;;;;;;;;;20.80;99.90;;;;;;5067968;28;19927;-69
2023/07/14 07:16:34;;;;;;;;;;;21.00;99.90;;;;;;5067184;28;19927;-68
2023/07/14 07:19:03;;;;;;;;;;;21.20;99.90;;;;;;5064692;28;19921;-68
2023/07/14 07:21:31;;;;;;;;;;;21.30;99.90;;;;;;5053924;28;20009;-69
2023/07/14 07:23:59;;;;;;;;;;;21.40;99.90;;;;;;5053811;28;19958;-69
2023/07/14 07:26:27;;;;;;;;;;;21.60;99.90;;;;;;5054206;28;20383;-68
2023/07/14 07:28:55;;;;;;;;;;;21.90;99.90;;;;;;5053905;28;19967;-68
2023/07/14 07:31:22;;;;;;;;;;;22.00;99.90;;;;;;5053815;28;19958;-69
2023/07/14 07:33:51;;;;;;;;;;;22.20;99.90;;;;;;5053852;28;19921;-69
2023/07/14 07:36:22;;;;;;;;;;;22.40;99.90;;;;;;5053788;28;19920;-69
2023/07/14 07:38:51;;;;;;;;;;;22.70;99.90;;;;;;5053755;28;19993;-68
2023/07/14 07:41:20;;;;;;;;;;;22.80;99.90;;;;;;5053625;28;20004;-68
2023/07/14 07:43:48;;;;;;;;;;;22.90;99.90;;;;;;5054561;28;19967;-68
2023/07/14 07:46:16;;;;;;;;;;;22.90;99.90;;;;;;5061797;28;19958;-68
2023/07/14 07:48:44;;;;;;;;;;;23.00;99.90;;;;;;5053976;28;20041;-68
2023/07/14 07:51:13;;;;;;;;;;;23.00;99.90;;;;;;5053517;28;19972;-68
2023/07/14 07:53:42;;;;;;;;;;;23.00;99.90;;;;;;5053650;28;19920;-68
2023/07/14 07:56:10;;;;;;;;;;;23.20;99.90;;;;;;5053670;28;20102;-68
2023/07/14 07:58:38;;;;;;;;;;;23.30;99.90;;;;;;5053231;28;20424;-68
2023/07/14 08:01:07;;;;;;;;;;;23.40;99.90;;;;;;5053421;28;20315;-68
2023/07/14 08:03:35;;;;;;;;;;;23.60;99.90;;;;;;5053188;28;20317;-68
2023/07/14 08:06:04;;;;;;;;;;;23.60;99.90;;;;;;5053303;28;20316;-68
2023/07/14 08:08:32;;;;;;;;;;;23.60;99.90;;;;;;5052743;28;19955;-68
2023/07/14 08:11:02;;;;;;;;;;;23.60;99.90;;;;;;5053489;28;19954;-68
2023/07/14 08:13:30;;;;;;;;;;;23.60;99.90;;;;;;5054864;28;19959;-68
2023/07/14 08:15:58;;;;;;;;;;;23.70;99.90;;;;;;5052577;28;19983;-68
2023/07/14 08:18:26;;;;;;;;;;;23.80;99.90;;;;;;5052947;28;19959;-68
2023/07/14 08:20:54;;;;;;;;;;;23.80;99.90;;;;;;5053044;28;19927;-68
2023/07/14 08:23:23;;;;;;;;;;;23.80;99.90;;;;;;5052730;28;19921;-68
2023/07/14 08:25:55;;;;;;;;;;;23.90;99.90;;;;;;5052515;28;19927;-68
2023/07/14 08:28:25;;;;;;;;;;;24.00;99.90;;;;;;5053226;28;19927;-68
2023/07/14 08:30:58;;;;;;;;;;;24.30;99.90;;;;;;5052163;28;20294;-68
2023/07/14 08:33:26;;;;;;;;;;;24.70;99.90;;;;;;5053037;28;19954;-68
2023/07/14 08:35:54;;;;;;;;;;;24.80;99.90;;;;;;5052392;28;19955;-68
2023/07/14 08:38:22;;;;;;;;;;;24.90;99.90;;;;;;5052674;28;19955;-68
2023/07/14 08:40:52;;;;;;;;;;;25.00;99.90;;;;;;5052739;28;19959;-68
2023/07/14 08:43:24;;;;;;;;;;;24.90;99.30;;;;;;5052576;28;19951;-68
2023/07/14 08:45:56;;;;;;;;;;;24.90;99.30;;;;;;5070823;28;19989;-68
2023/07/14 08:48:30;;;;;;;;;;;25.20;97.70;;;;;;5072160;28;19986;-68
2023/07/14 08:51:00;;;;;;;;;;;25.40;97.80;;;;;;5072271;28;19954;-68
2023/07/14 08:53:29;;;;;;;;;;;25.60;97.20;;;;;;5072313;28;19962;-68
2023/07/14 08:56:01;;;;;;;;;;;25.80;97.30;;;;;;5072322;28;20417;-68
2023/07/14 08:58:31;;;;;;;;;;;25.90;96.70;;;;;;5072547;28;20483;-68
2023/07/14 09:01:05;;;;;;;;;;;25.90;95.90;;;;;;5072051;28;19951;-68
2023/07/14 09:03:37;;;;;;;;;;;26.20;97.20;;;;;;5071917;28;20008;-69
2023/07/14 09:06:10;;;;;;;;;;;26.40;95.60;;;;;;5071481;28;19951;-69
2023/07/14 09:08:39;;;;;;;;;;;26.70;95.40;;;;;;5063365;28;20007;-69
2023/07/14 09:11:15;;;;;;;;;;;26.60;94.80;;;;;;5063612;28;20387;-68
2023/07/14 09:13:47;;;;;;;;;;;26.40;94.00;;;;;;5071683;28;20397;-68
2023/07/14 09:16:19;;;;;;;;;;;26.20;94.80;;;;;;5071786;28;19926;-69
2023/07/14 09:18:52;;;;;;;;;;;26.30;94.50;;;;;;5051906;28;20393;-68
2023/07/14 09:21:22;;;;;;;;;;;26.50;94.40;;;;;;5052015;28;19997;-68
2023/07/14 09:23:57;;;;;;;;;;;26.70;96.90;;;;;;5051756;28;19921;-68
2023/07/14 09:26:27;;;;;;;;;;;26.70;95.20;;;;;;5051588;28;20421;-69
2023/07/14 09:28:56;;;;;;;;;;;26.60;95.00;;;;;;5051538;28;19977;-69
2023/07/14 09:31:41;;;;;;;;;;;26.70;96.60;;;;;;5051519;28;19958;-68
2023/07/14 09:34:13;;;;;;;;;;;26.90;94.30;;;;;;5051782;28;19925;-69
2023/07/14 09:36:41;;;;;;;;;;;27.20;94.50;;;;;;5051608;28;19966;-69
2023/07/14 09:39:12;;;;;;;;;;;27.70;93.70;;;;;;5051679;28;19946;-69
2023/07/14 09:41:40;;;;;;;;;;;27.90;92.50;;;;;;5051399;28;19921;-69
2023/07/14 09:44:09;;;;;;;;;;;28.20;91.20;;;;;;5059027;28;19920;-68
2023/07/14 09:46:41;;;;;;;;;;;28.20;89.60;;;;;;5052940;28;20341;-68
2023/07/14 09:49:12;;;;;;;;;;;27.80;90.20;;;;;;5051477;28;20378;-68
2023/07/14 09:51:59;;;;;;;;;;;28.00;91.00;;;;;;5051325;28;19927;-68
2023/07/14 09:54:27;;;;;;;;;;;27.60;90.20;;;;;;5051118;28;20348;-68
2023/07/14 09:57:00;;;;;;;;;;;27.80;90.90;;;;;;5051353;28;19927;-68
2023/07/14 09:59:28;;;;;;;;;;;27.90;90.10;;;;;;5051344;28;19925;-68
2023/07/14 10:01:59;;;;;;;;;;;27.90;88.20;;;;;;5051409;28;20275;-68
2023/07/14 10:04:28;;;;;;;;;;;27.60;88.10;;;;;;5050912;28;19920;-69
2023/07/14 10:07:11;;;;;;;;;;;27.60;89.10;;;;;;5051149;28;20396;-68
2023/07/14 10:09:56;;;;;;;;;;;27.30;89.90;;;;;;5011533;28;19921;-68
2023/07/14 10:12:23;;;;;;;;;;;27.30;90.80;;;;;;5011690;28;19972;-70
2023/07/14 10:14:53;;;;;;;;;;;27.20;90.40;;;;;;5021308;28;19928;-67
2023/07/14 10:17:27;;;;;;;;;;;27.00;90.80;;;;;;5011725;28;19968;-68
2023/07/14 10:19:56;;;;;;;;;;;27.10;89.70;;;;;;5011631;28;20016;-69
2023/07/14 10:22:25;;;;;;;;;;;27.40;90.20;;;;;;5011554;28;20340;-68
2023/07/14 10:24:56;;;;;;;;;;;27.50;88.30;;;;;;5030988;28;19971;-68
2023/07/14 10:27:25;;;;;;;;;;;27.30;90.00;;;;;;5031167;28;19921;-69
2023/07/14 10:30:15;;;;;;;;;;;27.40;89.50;;;;;;5031174;28;20398;-69
2023/07/14 10:32:47;;;;;;;;;;;27.50;90.10;;;;;;5030890;28;19931;-68
2023/07/14 10:35:17;;;;;;;;;;;27.60;87.50;;;;;;5030895;28;19955;-69
2023/07/14 10:37:49;;;;;;;;;;;27.60;87.40;;;;;;5031083;28;19928;-69
2023/07/14 10:40:18;;;;;;;;;;;27.60;87.20;;;;;;5031417;28;19921;-69
2023/07/14 10:42:50;;;;;;;;;;;27.90;87.60;;;;;;5030957;28;19955;-69
2023/07/14 10:45:18;;;;;;;;;;;28.40;88.10;;;;;;5030535;28;19921;-69
2023/07/14 10:47:50;;;;;;;;;;;28.50;89.90;;;;;;5012267;28;20050;-69
2023/07/14 10:50:20;;;;;;;;;;;28.50;86.10;;;;;;5011372;28;20431;-69
2023/07/14 10:52:49;;;;;;;;;;;28.30;85.20;;;;;;5011021;28;19965;-69
2023/07/14 10:55:20;;;;;;;;;;;28.10;85.80;;;;;;5012882;28;19958;-69
2023/07/14 10:57:50;;;;;;;;;;;27.90;86.40;;;;;;5014942;28;20004;-69
2023/07/14 11:00:25;;;;;;;;;;;27.40;85.10;;;;;;5015106;28;20334;-68
2023/07/14 11:02:59;;;;;;;;;;;27.20;86.50;;;;;;5014587;28;19960;-68
2023/07/14 11:05:28;;;;;;;;;;;27.00;86.50;;;;;;5014883;28;20268;-68
2023/07/14 11:07:56;;;;;;;;;;;26.70;86.30;;;;;;5026655;28;19951;-69
2023/07/14 11:10:40;;;;;;;;;;;26.70;87.20;;;;;;5054432;28;19956;-69
2023/07/14 11:13:14;;;;;;;;;;;26.50;86.90;;;;;;5054525;28;20308;-69
2023/07/14 11:15:44;;;;;;;;;;;26.40;87.50;;;;;;5053998;28;20373;-69
2023/07/14 11:18:24;;;;;;;;;;;26.30;88.30;;;;;;5054300;28;19951;-69
2023/07/14 11:20:56;;;;;;;;;;;26.30;89.00;;;;;;5053866;28;19974;-69
2023/07/14 11:23:27;;;;;;;;;;;26.20;89.40;;;;;;5054317;28;19962;-69
2023/07/14 11:25:57;;;;;;;;;;;26.20;88.90;;;;;;5053644;28;20001;-69
2023/07/14 11:28:32;;;;;;;;;;;26.20;89.10;;;;;;5054326;28;20460;-69
2023/07/14 11:31:01;;;;;;;;;;;26.10;88.40;;;;;;5054149;28;19955;-69
2023/07/14 11:33:36;;;;;;;;;;;26.00;88.10;;;;;;5054437;28;19955;-69
2023/07/14 11:36:07;;;;;;;;;;;25.90;89.30;;;;;;5053729;28;19920;-69
2023/07/14 11:38:38;;;;;;;;;;;25.90;89.70;;;;;;5053905;28;19955;-69
2023/07/14 11:41:06;;;;;;;;;;;26.10;89.70;;;;;;5054067;28;20001;-69
2023/07/14 11:43:34;;;;;;;;;;;26.10;90.00;;;;;;5056980;28;19958;-69
2023/07/14 11:46:03;;;;;;;;;;;26.00;90.10;;;;;;5053381;28;19966;-69
2023/07/14 11:48:37;;;;;;;;;;;26.00;89.90;;;;;;5053805;28;20383;-69
2023/07/14 11:51:06;;;;;;;;;;;26.00;90.00;;;;;;5053748;28;20383;-68
2023/07/14 11:53:34;;;;;;;;;;;25.90;89.50;;;;;;5053670;28;20332;-69
2023/07/14 11:56:23;;;;;;;;;;;25.80;89.80;;;;;;5053693;28;19952;-68
2023/07/14 11:58:52;;;;;;;;;;;25.70;89.60;;;;;;5053433;28;19921;-69
2023/07/14 12:01:24;;;;;;;;;;;25.60;90.80;;;;;;5053290;28;20440;-69
2023/07/14 12:03:56;;;;;;;;;;;25.60;90.40;;;;;;5053313;28;19955;-69
2023/07/14 12:06:42;;;;;;;;;;;25.80;90.30;;;;;;5053311;28;19998;-68
2023/07/14 12:09:14;;;;;;;;;;;26.10;90.30;;;;;;5053264;28;20445;-69
2023/07/14 12:11:51;;;;;;;;;;;26.50;90.70;;;;;;5053043;28;19955;-69
2023/07/14 12:14:25;;;;;;;;;;;27.00;89.00;;;;;;5062405;28;19950;-69
2023/07/14 12:16:53;;;;;;;;;;;27.40;87.40;;;;;;5054071;28;19962;-69
2023/07/14 12:19:24;;;;;;;;;;;28.00;88.20;;;;;;5053221;28;20380;-69
2023/07/14 12:22:03;;;;;;;;;;;28.30;88.60;;;;;;5052962;28;20009;-70
2023/07/14 12:24:32;;;;;;;;;;;28.20;87.20;;;;;;5052988;28;19955;-69
2023/07/14 12:27:08;;;;;;;;;;;27.70;86.00;;;;;;5052722;28;19921;-69
2023/07/14 12:29:36;;;;;;;;;;;27.40;89.30;;;;;;5053155;28;19955;-69
2023/07/14 12:32:24;;;;;;;;;;;27.40;85.90;;;;;;5052748;28;19967;-69
2023/07/14 12:34:53;;;;;;;;;;;27.70;85.90;;;;;;5052603;28;19921;-69
2023/07/14 12:37:22;;;;;;;;;;;27.90;87.20;;;;;;5052544;28;20413;-69
2023/07/14 12:39:51;;;;;;;;;;;28.20;86.20;;;;;;5052720;28;19928;-69
2023/07/14 12:42:19;;;;;;;;;;;28.10;84.70;;;;;;5052741;28;19977;-68
2023/07/14 12:44:47;;;;;;;;;;;27.90;85.80;;;;;;5064442;28;19970;-68
2023/07/14 12:47:16;;;;;;;;;;;27.80;86.70;;;;;;5052457;28;20337;-69
2023/07/14 12:49:47;;;;;;;;;;;27.60;85.50;;;;;;5052505;28;19931;-68
2023/07/14 12:52:18;;;;;;;;;;;27.80;86.40;;;;;;5052494;28;19924;-68
2023/07/14 12:54:47;;;;;;;;;;;28.00;84.10;;;;;;5052220;28;19925;-68
2023/07/14 12:57:15;;;;;;;;;;;28.20;83.90;;;;;;5052237;28;19920;-69
2023/07/14 12:59:47;;;;;;;;;;;28.30;86.10;;;;;;5052151;28;19962;-69
2023/07/14 13:02:15;;;;;;;;;;;28.30;86.60;;;;;;5052273;28;20436;-69
2023/07/14 13:04:43;;;;;;;;;;;28.60;84.30;;;;;;5052003;28;19955;-70
2023/07/14 13:07:13;;;;;;;;;;;29.10;82.60;;;;;;5051942;28;19921;-69
2023/07/14 13:09:43;;;;;;;;;;;29.70;81.00;;;;;;5052270;28;20391;-69
2023/07/14 13:12:13;;;;;;;;;;;30.10;80.60;;;;;;5051914;28;19925;-69
2023/07/14 13:14:45;;;;;;;;;;;30.30;77.50;;;;;;5064143;28;19926;-69
2023/07/14 13:17:18;;;;;;;;;;;30.20;76.30;;;;;;5051438;28;19974;-69
2023/07/14 13:19:48;;;;;;;;;;;30.30;77.00;;;;;;5052009;28;19925;-70
2023/07/14 13:22:19;;;;;;;;;;;30.90;77.00;;;;;;5051989;28;19928;-69
2023/07/14 13:24:56;;;;;;;;;;;31.10;75.90;;;;;;5051577;28;19943;-69
2023/07/14 13:27:25;;;;;;;;;;;31.30;74.50;;;;;;5051998;28;20412;-69
2023/07/14 13:30:00;;;;;;;;;;;31.30;73.70;;;;;;5051782;28;19924;-69
2023/07/14 13:32:28;;;;;;;;;;;31.50;73.00;;;;;;5051688;28;20449;-69
2023/07/14 13:34:59;;;;;;;;;;;31.80;73.80;;;;;;5051422;28;19921;-70
2023/07/14 13:37:28;;;;;;;;;;;32.20;72.20;;;;;;5051679;28;19928;-70
2023/07/14 13:39:58;;;;;;;;;;;32.30;70.50;;;;;;5051674;28;19932;-70
2023/07/14 13:42:32;;;;;;;;;;;32.70;72.20;;;;;;5051707;28;20379;-70
2023/07/14 13:45:01;;;;;;;;;;;32.70;70.00;;;;;;5066262;28;19921;-70
2023/07/14 13:47:39;;;;;;;;;;;32.70;70.50;;;;;;5065192;28;20335;-69
2023/07/14 13:50:08;;;;;;;;;;;32.30;69.80;;;;;;5051498;28;20375;-70
2023/07/14 13:52:36;;;;;;;;;;;31.90;70.10;;;;;;5051682;28;19929;-70
2023/07/14 13:55:12;;;;;;;;;;;32.00;70.30;;;;;;5051083;28;19921;-69
2023/07/14 13:57:40;;;;;;;;;;;32.30;71.30;;;;;;5052081;28;20329;-70
2023/07/14 14:00:14;;;;;;;;;;;32.50;70.00;;;;;;5051474;28;20018;-70
2023/07/14 14:02:43;;;;;;;;;;;32.50;68.40;;;;;;5051231;28;19921;-70
2023/07/14 14:05:16;;;;;;;;;;;32.90;69.00;;;;;;5051062;28;20346;-70
2023/07/14 14:07:44;;;;;;;;;;;33.20;68.10;;;;;;5051186;28;19948;-70
2023/07/14 14:10:14;;;;;;;;;;;33.20;67.40;;;;;;5051203;28;20436;-70
2023/07/14 14:12:44;;;;;;;;;;;33.60;68.40;;;;;;5050951;28;19928;-70
2023/07/14 14:15:16;;;;;;;;;;;33.40;67.20;;;;;;5067423;28;19921;-70
2023/07/14 14:17:45;;;;;;;;;;;33.30;67.40;;;;;;5055234;28;19921;-69
2023/07/14 14:20:15;;;;;;;;;;;33.30;67.70;;;;;;5050982;28;19927;-70
2023/07/14 14:22:43;;;;;;;;;;;32.80;66.70;;;;;;5051116;28;19932;-69
2023/07/14 14:25:16;;;;;;;;;;;32.30;67.30;;;;;;5050732;28;19920;-69
2023/07/14 14:27:44;;;;;;;;;;;32.20;67.20;;;;;;5051042;28;19921;-69
2023/07/14 14:30:12;;;;;;;;;;;32.30;67.50;;;;;;5052927;28;19951;-70
2023/07/14 14:32:41;;;;;;;;;;;32.60;67.00;;;;;;5055063;28;20306;-70
2023/07/14 14:35:31;;;;;;;;;;;32.70;67.80;;;;;;5054805;28;20362;-71
2023/07/14 14:38:00;;;;;;;;;;;32.80;67.70;;;;;;5049341;28;20306;-70
2023/07/14 14:40:32;;;;;;;;;;;32.90;67.20;;;;;;5054992;28;19925;-70
2023/07/14 14:43:01;;;;;;;;;;;32.70;66.20;;;;;;5054804;28;19921;-70
2023/07/14 14:45:31;;;;;;;;;;;32.70;66.20;;;;;;5067530;28;19946;-73
2023/07/14 14:47:59;;;;;;;;;;;32.60;66.90;;;;;;5069503;28;20314;-71
2023/07/14 14:50:27;;;;;;;;;;;32.60;66.80;;;;;;5066159;28;20417;-67
2023/07/14 14:52:55;;;;;;;;;;;32.50;66.50;;;;;;5064139;28;20011;-71
2023/07/14 14:55:22;;;;;;;;;;;32.40;67.30;;;;;;5062443;28;19921;-70
2023/07/14 14:57:54;;;;;;;;;;;32.40;66.70;;;;;;5070668;28;20330;-71
2023/07/14 15:00:23;;;;;;;;;;;32.50;66.70;;;;;;5066817;28;19920;-71
2023/07/14 15:02:51;;;;;;;;;;;32.60;66.90;;;;;;5065313;28;19920;-70
2023/07/14 15:05:20;;;;;;;;;;;32.80;67.50;;;;;;5056774;28;20370;-70
2023/07/14 15:07:48;;;;;;;;;;;33.20;66.90;;;;;;5053940;28;19920;-70
2023/07/14 15:10:16;;;;;;;;;;;33.30;65.10;;;;;;5055361;28;20380;-71
2023/07/14 15:12:45;;;;;;;;;;;33.30;65.60;;;;;;5052721;28;19920;-71
2023/07/14 15:15:19;;;;;;;;;;;32.80;66.50;;;;;;5061790;28;19924;-72
2023/07/14 15:17:47;;;;;;;;;;;32.10;66.90;;;;;;5065069;28;19928;-71
2023/07/14 15:20:16;;;;;;;;;;;32.00;67.90;;;;;;5073001;28;19927;-71
2023/07/14 15:22:44;;;;;;;;;;;32.10;67.20;;;;;;5067625;28;19927;-71
2023/07/14 15:25:13;;;;;;;;;;;32.00;66.70;;;;;;5072432;28;19924;-70
2023/07/14 15:27:42;;;;;;;;;;;32.00;67.00;;;;;;5073775;28;20358;-70
2023/07/14 15:30:17;;;;;;;;;;;32.30;67.10;;;;;;5070875;28;19951;-70
2023/07/14 15:32:47;;;;;;;;;;;32.70;67.30;;;;;;5073225;28;19920;-70
2023/07/14 15:35:15;;;;;;;;;;;32.80;67.20;;;;;;5072682;28;19920;-71
2023/07/14 15:37:43;;;;;;;;;;;32.60;67.00;;;;;;5073071;28;19920;-72
2023/07/14 15:40:13;;;;;;;;;;;32.30;66.30;;;;;;5064667;28;20294;-71
2023/07/14 15:42:42;;;;;;;;;;;32.00;66.50;;;;;;5066597;28;19920;-71
2023/07/14 15:45:13;;;;;;;;;;;32.10;67.30;;;;;;5070790;28;20368;-70
2023/07/14 15:47:41;;;;;;;;;;;32.00;68.10;;;;;;5062579;28;19938;-70
2023/07/14 15:50:12;;;;;;;;;;;32.00;66.70;;;;;;5064651;28;19920;-70
2023/07/14 15:52:42;;;;;;;;;;;31.90;68.50;;;;;;5072790;28;20012;-71
2023/07/14 15:55:14;;;;;;;;;;;31.60;67.60;;;;;;5072167;28;19920;-70
2023/07/14 15:57:42;;;;;;;;;;;31.30;68.40;;;;;;5064979;28;19920;-70
2023/07/14 16:00:12;;;;;;;;;;;31.00;68.10;;;;;;5071369;28;19924;-72
2023/07/14 16:02:40;;;;;;;;;;;31.00;69.30;;;;;;5073025;28;19966;-70
2023/07/14 16:05:08;;;;;;;;;;;30.80;68.50;;;;;;5071910;28;19947;-71
2023/07/14 16:07:38;;;;;;;;;;;30.80;68.60;;;;;;5071835;28;19930;-70
2023/07/14 16:10:07;;;;;;;;;;;30.70;67.30;;;;;;5071525;28;19970;-71
2023/07/14 16:12:35;;;;;;;;;;;30.60;67.80;;;;;;5071172;28;19970;-71
2023/07/14 16:15:04;;;;;;;;;;;30.30;65.80;;;;;;5065056;28;20218;-70
2023/07/14 16:17:33;;;;;;;;;;;30.20;67.10;;;;;;5072093;28;19920;-70
2023/07/14 16:20:02;;;;;;;;;;;30.20;66.60;;;;;;5071501;28;20371;-70
2023/07/14 16:22:30;;;;;;;;;;;30.10;66.60;;;;;;5071774;28;19924;-70
2023/07/14 16:24:59;;;;;;;;;;;30.20;67.10;;;;;;5072707;28;20348;-70
2023/07/14 16:27:30;;;;;;;;;;;30.20;67.70;;;;;;5064546;28;20406;-70
2023/07/14 16:29:58;;;;;;;;;;;30.10;66.70;;;;;;5066770;28;19928;-69
2023/07/14 16:32:27;;;;;;;;;;;30.00;67.30;;;;;;5064415;28;19932;-70
2023/07/14 16:34:56;;;;;;;;;;;29.80;66.90;;;;;;5072533;28;19920;-70
2023/07/14 16:37:24;;;;;;;;;;;29.70;66.70;;;;;;5072396;28;19920;-71
2023/07/14 16:39:53;;;;;;;;;;;29.60;67.50;;;;;;5072304;28;19936;-70
2023/07/14 16:42:22;;;;;;;;;;;29.50;67.40;;;;;;5072041;28;19928;-70
2023/07/14 16:44:50;;;;;;;;;;;29.30;67.70;;;;;;5066496;28;19924;-70
2023/07/14 16:47:21;;;;;;;;;;;29.20;68.80;;;;;;5071529;28;19920;-70
2023/07/14 16:49:50;;;;;;;;;;;29.20;67.40;;;;;;5063897;28;19920;-71
2023/07/14 16:52:22;;;;;;;;;;;29.10;66.70;;;;;;5070845;28;19920;-69
2023/07/14 16:54:51;;;;;;;;;;;29.10;66.90;;;;;;5072027;28;19931;-69
2023/07/14 16:57:25;;;;;;;;;;;29.00;66.40;;;;;;5071946;28;19956;-70
2023/07/14 16:59:54;;;;;;;;;;;28.90;66.60;;;;;;5067088;28;20391;-70
2023/07/14 17:02:23;;;;;;;;;;;28.90;66.30;;;;;;5068409;28;19927;-70
2023/07/14 17:04:51;;;;;;;;;;;28.80;66.00;;;;;;5069236;28;19921;-69
2023/07/14 17:07:20;;;;;;;;;;;28.80;66.50;;;;;;5063315;28;19927;-70
2023/07/14 17:09:49;;;;;;;;;;;28.70;66.80;;;;;;5071795;28;19920;-71
2023/07/14 17:12:17;;;;;;;;;;;28.60;67.10;;;;;;5071235;28;20014;-70
2023/07/14 17:14:46;;;;;;;;;;;28.50;66.70;;;;;;5064820;28;19921;-69
2023/07/14 17:17:15;;;;;;;;;;;28.50;66.80;;;;;;5058865;28;19971;-71
2023/07/14 17:19:43;;;;;;;;;;;28.40;66.90;;;;;;5054557;28;19924;-70
2023/07/14 17:22:12;;;;;;;;;;;28.30;67.00;;;;;;5060642;28;19928;-70
2023/07/14 17:24:41;;;;;;;;;;;28.30;67.80;;;;;;5067034;28;19921;-69
2023/07/14 17:27:14;;;;;;;;;;;28.20;67.00;;;;;;5060299;28;20359;-70
2023/07/14 17:29:43;;;;;;;;;;;28.20;68.10;;;;;;5066689;28;19920;-69
2023/07/14 17:32:12;;;;;;;;;;;28.20;68.30;;;;;;5068102;28;20370;-69
2023/07/14 17:34:40;;;;;;;;;;;28.20;68.70;;;;;;5064269;28;19925;-69
2023/07/14 17:37:11;;;;;;;;;;;28.20;68.50;;;;;;5071447;28;19927;-70
2023/07/14 17:39:43;;;;;;;;;;;28.20;69.10;;;;;;5071387;28;19924;-69
2023/07/14 17:42:16;;;;;;;;;;;28.20;68.80;;;;;;5071226;28;19920;-70
2023/07/14 17:44:44;;;;;;;;;;;28.10;69.00;;;;;;5071541;28;20351;-69
2023/07/14 17:47:13;;;;;;;;;;;28.10;69.20;;;;;;5062907;28;19921;-70
2023/07/14 17:49:41;;;;;;;;;;;28.10;69.20;;;;;;5055919;28;19966;-69
2023/07/14 17:52:13;;;;;;;;;;;28.00;69.30;;;;;;5071210;28;19920;-69
2023/07/14 17:54:42;;;;;;;;;;;27.80;69.80;;;;;;5066396;28;19925;-69
2023/07/14 17:57:14;;;;;;;;;;;27.80;69.90;;;;;;5067935;28;19920;-69
2023/07/14 17:59:41;;;;;;;;;;;27.70;70.20;;;;;;5071403;28;19920;-70
2023/07/14 18:02:18;;;;;;;;;;;27.70;70.30;;;;;;5070058;28;19927;-69
2023/07/14 18:04:46;;;;;;;;;;;27.70;70.80;;;;;;5070980;28;19920;-69
2023/07/14 18:07:14;;;;;;;;;;;27.70;70.90;;;;;;5070772;28;20337;-69
2023/07/14 18:09:42;;;;;;;;;;;27.60;70.50;;;;;;5071177;28;19920;-69
2023/07/14 18:12:13;;;;;;;;;;;27.60;70.40;;;;;;5071088;28;19924;-69
2023/07/14 18:14:41;;;;;;;;;;;27.60;70.50;;;;;;5063450;28;20430;-69
2023/07/14 18:17:12;;;;;;;;;;;27.60;70.50;;;;;;5063091;28;20441;-69
2023/07/14 18:19:41;;;;;;;;;;;27.60;70.70;;;;;;5054908;28;19920;-69
2023/07/14 18:22:16;;;;;;;;;;;27.60;71.20;;;;;;5071112;28;19974;-69
2023/07/14 18:24:45;;;;;;;;;;;27.60;72.30;;;;;;5063762;28;19920;-70
2023/07/14 18:27:16;;;;;;;;;;;27.60;72.50;;;;;;5070837;28;19920;-69
2023/07/14 18:29:44;;;;;;;;;;;27.70;72.20;;;;;;5071087;28;19927;-69
2023/07/14 18:32:12;;;;;;;;;;;27.60;74.10;;;;;;5063319;28;19966;-70
2023/07/14 18:34:40;;;;;;;;;;;27.60;72.40;;;;;;5062833;28;19929;-72
2023/07/14 18:37:13;;;;;;;;;;;27.60;74.00;;;;;;5071024;28;19920;-70
2023/07/14 18:39:45;;;;;;;;;;;27.50;71.40;;;;;;5062946;28;19964;-74
2023/07/14 18:42:16;;;;;;;;;;;27.50;73.00;;;;;;5062534;28;19995;-71
2023/07/14 18:44:44;;;;;;;;;;;27.50;71.80;;;;;;5070469;28;20371;-70
2023/07/14 18:47:12;;;;;;;;;;;27.40;73.70;;;;;;5070863;28;20383;-70
2023/07/14 18:49:42;;;;;;;;;;;27.30;75.20;;;;;;5070648;28;19981;-70
2023/07/14 18:52:13;;;;;;;;;;;27.30;77.50;;;;;;5063100;28;19966;-70
2023/07/14 18:54:41;;;;;;;;;;;27.20;76.90;;;;;;5068574;28;19920;-71
2023/07/14 18:57:15;;;;;;;;;;;27.20;79.30;;;;;;5070887;28;19922;-70
2023/07/14 18:59:43;;;;;;;;;;;27.10;77.70;;;;;;5070656;28;19927;-70
2023/07/14 19:02:23;;;;;;;;;;;27.10;78.40;;;;;;5063025;28;20008;-70
2023/07/14 19:04:51;;;;;;;;;;;27.00;78.60;;;;;;5055594;28;19924;-70
2023/07/14 19:07:22;;;;;;;;;;;26.90;78.50;;;;;;5070324;28;19927;-70
2023/07/14 19:09:49;;;;;;;;;;;26.80;78.50;;;;;;5070477;28;19921;-70
2023/07/14 19:12:21;;;;;;;;;;;26.70;79.20;;;;;;5062178;28;19928;-70
2023/07/14 19:14:49;;;;;;;;;;;26.60;81.20;;;;;;5070416;28;19974;-71
2023/07/14 19:17:17;;;;;;;;;;;26.50;80.00;;;;;;5065330;28;20429;-72
2023/07/14 19:19:44;;;;;;;;;;;26.40;80.20;;;;;;5062139;28;19920;-70
2023/07/14 19:22:13;;;;;;;;;;;26.30;80.80;;;;;;5073974;28;19927;-70
2023/07/14 19:24:42;;;;;;;;;;;26.20;80.40;;;;;;5073922;28;20015;-70
2023/07/14 19:27:13;;;;;;;;;;;26.10;80.80;;;;;;5060266;28;19942;-70
2023/07/14 19:29:41;;;;;;;;;;;26.00;81.20;;;;;;5073729;28;19921;-70
2023/07/14 19:32:13;;;;;;;;;;;25.80;81.30;;;;;;5065796;28;19924;-70
2023/07/14 19:34:45;;;;;;;;;;;25.70;82.70;;;;;;5065073;28;19921;-70
2023/07/14 19:37:14;;;;;;;;;;;25.60;83.20;;;;;;5073930;28;19955;-70
2023/07/14 19:39:44;;;;;;;;;;;25.50;81.90;;;;;;5073519;28;20019;-70
2023/07/14 19:42:16;;;;;;;;;;;25.30;84.70;;;;;;5065588;28;19955;-71
2023/07/14 19:44:44;;;;;;;;;;;25.20;85.50;;;;;;5065430;28;20379;-70
2023/07/14 19:47:15;;;;;;;;;;;25.10;86.70;;;;;;5064457;28;19932;-70
2023/07/14 19:49:43;;;;;;;;;;;25.00;86.60;;;;;;5056480;28;20345;-70
2023/07/14 19:52:11;;;;;;;;;;;24.90;87.30;;;;;;5065402;28;19946;-71
2023/07/14 19:54:39;;;;;;;;;;;24.70;87.10;;;;;;5062216;28;19921;-69
2023/07/14 19:57:13;;;;;;;;;;;24.60;88.30;;;;;;5068504;28;19928;-69
2023/07/14 19:59:41;;;;;;;;;;;24.60;89.60;;;;;;5056515;28;19939;-71
2023/07/14 20:02:20;;;;;;;;;;;24.40;90.20;;;;;;5063143;28;19955;-70
2023/07/14 20:04:48;;;;;;;;;;;24.40;90.70;;;;;;5071290;28;20374;-70
2023/07/14 20:07:16;;;;;;;;;;;24.30;90.50;;;;;;5071551;28;19930;-66
2023/07/14 20:09:44;;;;;;;;;;;24.20;93.30;;;;;;5071003;28;19969;-65
2023/07/14 20:12:15;;;;;;;;;;;24.10;93.40;;;;;;5069680;28;19950;-66
2023/07/14 20:14:43;;;;;;;;;;;24.10;93.40;;;;;;5064302;28;19921;-66
2023/07/14 20:17:11;;;;;;;;;;;24.00;93.70;;;;;;5061682;28;19953;-66
2023/07/14 20:19:39;;;;;;;;;;;23.90;94.00;;;;;;5058138;28;19957;-64
2023/07/14 20:22:17;;;;;;;;;;;23.90;94.50;;;;;;5055489;28;20448;-66
2023/07/14 20:24:45;;;;;;;;;;;23.80;95.40;;;;;;5062141;28;19954;-66
2023/07/14 20:27:16;;;;;;;;;;;23.80;96.10;;;;;;5062928;28;19978;-66
2023/07/14 20:29:45;;;;;;;;;;;23.90;96.80;;;;;;5065746;28;20017;-66
2023/07/14 20:32:13;;;;;;;;;;;23.90;97.60;;;;;;5055525;28;19978;-66
2023/07/14 20:34:42;;;;;;;;;;;23.90;97.10;;;;;;5064232;28;19958;-66
2023/07/14 20:37:13;;;;;;;;;;;23.90;97.00;;;;;;5052515;28;19992;-66
2023/07/14 20:39:42;;;;;;;;;;;23.80;97.70;;;;;;5052178;28;20098;-66
2023/07/14 20:42:12;;;;;;;;;;;23.80;97.70;;;;;;5052494;28;19951;-66